createdAt,value
2023-04-03T00:01:20.080Z,0.69
2023-04-03T00:03:48.783Z,0.58
2023-04-03T00:06:17.257Z,0.60
2023-04-03T00:08:45.120Z,0.54
2023-04-03T00:11:13.008Z,0.55
2023-04-03T00:13:41.463Z,0.51
2023-04-03T00:16:11.109Z,0.48
2023-04-03T00:18:39.752Z,0.44
2023-04-03T00:21:08.378Z,0.40
2023-04-03T00:23:36.522Z,0.38
2023-04-03T00:26:04.805Z,0.20
2023-04-03T00:28:32.528Z,0.25
2023-04-03T00:31:01.322Z,0.27
2023-04-03T00:33:29.259Z,0.19
2023-04-03T00:35:57.738Z,0.20
2023-04-03T00:38:25.664Z,0.18
2023-04-03T00:40:54.084Z,0.12
2023-04-03T00:43:24.697Z,0.08
2023-04-03T00:45:57.575Z,0.09
2023-04-03T00:48:47.771Z,0.05
2023-04-03T00:51:19.409Z,0.03
2023-04-03T00:54:06.918Z,-0.04
2023-04-03T00:56:35.827Z,-0.06
2023-04-03T00:59:11.593Z,-0.08
2023-04-03T01:01:41.500Z,-0.10
2023-04-03T01:04:29.952Z,-0.11
2023-04-03T01:07:03.429Z,-0.16
2023-04-03T01:09:32.106Z,-0.16
2023-04-03T01:12:19.576Z,-0.16
2023-04-03T01:14:51.293Z,-0.27
2023-04-03T01:17:41.883Z,-0.26
2023-04-03T01:20:36.206Z,-0.23
2023-04-03T01:23:32.223Z,-0.26
2023-04-03T01:26:00.189Z,-0.31
2023-04-03T01:28:32.710Z,-0.31
2023-04-03T01:31:15.092Z,-0.35
2023-04-03T01:33:45.041Z,-0.33
2023-04-03T01:36:17.731Z,-0.45
2023-04-03T01:38:46.397Z,-0.44
2023-04-03T01:41:14.170Z,-0.55
2023-04-03T01:43:43.873Z,-0.51
2023-04-03T01:46:11.940Z,-0.51
2023-04-03T01:48:41.127Z,-0.56
2023-04-03T01:51:09.600Z,-0.56
2023-04-03T01:53:37.633Z,-0.58
2023-04-03T01:56:06.226Z,-0.62
2023-04-03T01:58:35.055Z,-0.63
2023-04-03T02:01:03.522Z,-0.69
2023-04-03T02:03:32.259Z,-0.69
2023-04-03T02:06:00.122Z,-0.69
2023-04-03T02:08:27.946Z,-0.77
2023-04-03T02:10:56.162Z,-0.76
2023-04-03T02:13:24.147Z,-0.75
2023-04-03T02:15:51.837Z,-0.78
2023-04-03T02:18:20.078Z,-0.81
2023-04-03T02:20:48.947Z,-0.87
2023-04-03T02:23:16.996Z,-0.87
2023-04-03T02:25:45.392Z,-1.02
2023-04-03T02:28:13.452Z,-0.97
2023-04-03T02:30:41.073Z,-0.94
2023-04-03T02:33:09.474Z,-0.92
2023-04-03T02:35:38.319Z,-1.01
2023-04-03T02:38:06.912Z,-1.02
2023-04-03T02:40:35.513Z,-1.06
2023-04-03T02:43:03.918Z,-1.06
2023-04-03T02:45:31.770Z,-1.12
2023-04-03T02:47:59.881Z,-1.12
2023-04-03T02:50:27.548Z,-1.11
2023-04-03T02:52:55.692Z,-1.18
2023-04-03T02:55:23.534Z,-1.16
2023-04-03T02:57:54.325Z,-1.21
2023-04-03T03:00:22.213Z,-1.22
2023-04-03T03:02:50.822Z,-1.28
2023-04-03T03:05:19.230Z,-1.27
2023-04-03T03:07:47.216Z,-1.29
2023-04-03T03:10:15.420Z,-1.33
2023-04-03T03:12:43.586Z,-1.37
2023-04-03T03:15:11.901Z,-1.42
2023-04-03T03:17:40.120Z,-1.43
2023-04-03T03:20:08.536Z,-1.49
2023-04-03T03:22:37.404Z,-1.50
2023-04-03T03:25:06.062Z,-1.56
2023-04-03T03:27:34.523Z,-1.59
2023-04-03T03:30:02.252Z,-1.55
2023-04-03T03:32:31.052Z,-1.58
2023-04-03T03:34:58.926Z,-1.57
2023-04-03T03:37:28.361Z,-1.60
2023-04-03T03:39:56.447Z,-1.63
2023-04-03T03:42:24.859Z,-1.60
2023-04-03T03:44:53.503Z,-1.69
2023-04-03T03:47:22.336Z,-1.70
2023-04-03T03:49:50.167Z,-1.74
2023-04-03T03:52:18.695Z,-1.77
2023-04-03T03:54:46.629Z,-1.87
2023-04-03T03:57:14.640Z,-1.80
2023-04-03T03:59:42.947Z,-1.85
2023-04-03T04:02:12.636Z,-1.86
2023-04-03T04:04:41.171Z,-1.92
2023-04-03T04:07:09.209Z,-1.88
2023-04-03T04:09:37.567Z,-1.87
2023-04-03T04:12:05.886Z,-1.91
2023-04-03T04:14:34.615Z,-1.86
2023-04-03T04:17:03.721Z,-1.94
2023-04-03T04:19:32.281Z,-1.86
2023-04-03T04:22:00.927Z,-1.91
2023-04-03T04:24:29.636Z,-1.94
2023-04-03T04:26:58.696Z,-1.84
2023-04-03T04:29:26.981Z,-1.80
2023-04-03T04:35:03.336Z,-1.78
2023-04-03T04:37:35.331Z,-1.72
2023-04-03T04:40:04.452Z,-1.73
2023-04-03T04:42:33.374Z,-1.59
2023-04-03T04:45:01.607Z,-1.38
2023-04-03T04:47:30.856Z,-1.12
2023-04-03T04:49:58.647Z,-0.93
2023-04-03T04:52:28.057Z,-0.75
2023-04-03T04:54:56.748Z,-0.60
2023-04-03T04:57:25.622Z,-0.50
2023-04-03T04:59:54.270Z,-0.38
2023-04-03T05:02:22.724Z,-0.27
2023-04-03T05:04:51.710Z,-0.32
2023-04-03T05:07:23.696Z,-0.34
2023-04-03T05:09:51.482Z,-0.19
2023-04-03T05:12:20.190Z,0.02
2023-04-03T05:14:55.757Z,-0.10
2023-04-03T05:17:24.179Z,-0.02
2023-04-03T05:19:55.515Z,0.21
2023-04-03T05:22:25.666Z,0.22
2023-04-03T05:24:58.047Z,0.43
2023-04-03T05:27:29.852Z,0.37
2023-04-03T05:30:01.746Z,0.32
2023-04-03T05:32:31.378Z,0.41
2023-04-03T05:35:13.718Z,0.49
2023-04-03T05:37:43.610Z,0.58
2023-04-03T05:40:13.211Z,0.55
2023-04-03T05:42:45.743Z,0.62
2023-04-03T05:45:16.709Z,0.74
2023-04-03T05:47:45.267Z,1.06
2023-04-03T05:50:13.604Z,0.76
2023-04-03T05:52:46.230Z,0.60
2023-04-03T05:55:16.927Z,0.51
2023-04-03T05:57:46.173Z,0.35
2023-04-03T06:00:16.838Z,0.55
2023-04-03T06:02:51.636Z,0.48
2023-04-03T06:05:23.946Z,0.51
2023-04-03T06:07:52.727Z,0.65
2023-04-03T06:10:21.485Z,0.64
2023-04-03T06:12:50.197Z,0.63
2023-04-03T06:15:18.832Z,0.51
2023-04-03T06:17:47.434Z,0.72
2023-04-03T06:20:15.560Z,0.98
2023-04-03T06:22:44.172Z,1.11
2023-04-03T06:25:13.726Z,1.01
2023-04-03T06:27:42.392Z,0.96
2023-04-03T06:30:11.267Z,1.02
2023-04-03T06:32:39.782Z,0.99
2023-04-03T06:35:07.869Z,1.15
2023-04-03T06:37:36.892Z,1.36
2023-04-03T06:40:06.012Z,1.53
2023-04-03T06:42:34.418Z,1.33
2023-04-03T06:45:12.597Z,1.30
2023-04-03T06:47:41.071Z,0.98
2023-04-03T06:50:12.823Z,0.79
2023-04-03T06:52:41.632Z,0.86
2023-04-03T06:55:10.468Z,0.94
2023-04-03T06:57:39.272Z,0.99
2023-04-03T07:00:08.584Z,1.21
2023-04-03T07:02:36.737Z,1.32
2023-04-03T07:05:07.107Z,1.33
2023-04-03T07:07:35.821Z,1.25
2023-04-03T07:10:04.336Z,1.17
2023-04-03T07:12:32.996Z,1.13
2023-04-03T07:15:01.142Z,1.21
2023-04-03T07:17:29.549Z,1.44
2023-04-03T07:19:57.612Z,1.63
2023-04-03T07:22:26.193Z,1.67
2023-04-03T07:24:54.297Z,1.64
2023-04-03T07:27:22.488Z,1.44
2023-04-03T07:29:51.215Z,1.32
2023-04-03T07:32:19.782Z,1.28
2023-04-03T07:34:47.495Z,1.48
2023-04-03T07:37:16.107Z,1.88
2023-04-03T07:39:46.223Z,1.89
2023-04-03T07:42:14.700Z,1.87
2023-04-03T07:44:42.491Z,1.82
2023-04-03T07:47:11.346Z,2.01
2023-04-03T07:49:40.929Z,2.13
2023-04-03T07:52:10.571Z,1.93
2023-04-03T07:54:38.461Z,1.70
2023-04-03T07:57:07.132Z,1.90
2023-04-03T07:59:35.400Z,2.18
2023-04-03T08:02:06.514Z,2.28
2023-04-03T08:04:35.251Z,2.24
2023-04-03T08:07:03.953Z,2.22
2023-04-03T08:09:32.793Z,2.20
2023-04-03T08:12:01.616Z,2.26
2023-04-03T08:14:32.610Z,2.24
2023-04-03T08:17:01.902Z,2.13
2023-04-03T08:19:30.137Z,2.27
2023-04-03T08:21:59.644Z,2.28
2023-04-03T08:24:27.429Z,2.33
2023-04-03T08:26:57.143Z,2.59
2023-04-03T08:29:25.738Z,2.75
2023-04-03T08:31:55.045Z,3.02
2023-04-03T08:34:22.816Z,2.74
2023-04-03T08:36:51.660Z,2.62
2023-04-03T08:39:19.706Z,2.19
2023-04-03T08:41:49.211Z,2.44
2023-04-03T08:44:44.701Z,2.92
2023-04-03T08:47:23.104Z,3.13
2023-04-03T08:49:57.772Z,2.70
2023-04-03T08:52:58.076Z,2.84
2023-04-03T08:55:28.996Z,3.00
2023-04-03T08:58:06.589Z,2.91
2023-04-03T09:00:47.064Z,3.24
2023-04-03T09:03:18.645Z,3.48
2023-04-03T09:05:50.459Z,3.32
2023-04-03T09:08:47.454Z,2.87
2023-04-03T09:11:23.141Z,2.75
2023-04-03T09:14:04.842Z,2.79
2023-04-03T09:16:54.122Z,3.14
2023-04-03T09:19:37.739Z,3.08
2023-04-03T09:22:14.166Z,3.45
2023-04-03T09:24:43.131Z,3.50
2023-04-03T09:27:12.847Z,3.78
2023-04-03T09:29:47.520Z,3.92
2023-04-03T09:32:26.713Z,3.83
2023-04-03T09:34:59.636Z,3.73
2023-04-03T09:37:45.199Z,3.71
2023-04-03T09:40:35.947Z,3.81
2023-04-03T09:43:40.184Z,3.45
2023-04-03T09:46:32.579Z,3.20
2023-04-03T09:49:08.933Z,3.01
2023-04-03T09:51:38.993Z,3.17
2023-04-03T09:54:38.889Z,3.36
2023-04-03T09:57:14.674Z,3.54
2023-04-03T10:00:06.047Z,3.84
2023-04-03T10:02:37.942Z,4.01
2023-04-03T10:05:44.781Z,4.05
2023-04-03T10:08:31.830Z,3.49
2023-04-03T10:11:18.045Z,3.12
2023-04-03T10:14:01.304Z,3.20
2023-04-03T10:16:53.753Z,3.66
2023-04-03T10:19:40.432Z,3.83
2023-04-03T10:22:17.758Z,3.57
2023-04-03T10:24:54.287Z,3.22
2023-04-03T10:27:31.132Z,3.09
2023-04-03T10:30:06.498Z,3.22
2023-04-03T10:32:57.743Z,3.24
2023-04-03T10:35:47.388Z,2.97
2023-04-03T10:38:40.369Z,3.19
2023-04-03T10:41:27.386Z,3.77
2023-04-03T10:43:59.656Z,3.77
2023-04-03T10:46:40.755Z,3.87
2023-04-03T10:49:57.084Z,3.97
2023-04-03T10:52:51.693Z,4.10
2023-04-03T10:55:34.564Z,3.87
2023-04-03T10:58:04.626Z,3.53
2023-04-03T11:00:40.805Z,3.46
2023-04-03T11:03:34.024Z,3.67
2023-04-03T11:06:04.296Z,3.51
2023-04-03T11:08:44.067Z,3.57
2023-04-03T11:11:32.302Z,3.80
2023-04-03T11:14:04.279Z,4.18
2023-04-03T11:16:43.564Z,4.22
2023-04-03T11:19:25.072Z,4.25
2023-04-03T11:21:59.723Z,4.08
2023-04-03T11:24:31.332Z,3.63
2023-04-03T11:27:01.324Z,3.44
2023-04-03T11:29:35.948Z,3.52
2023-04-03T11:32:13.447Z,3.66
2023-04-03T11:34:47.894Z,4.21
2023-04-03T11:37:39.797Z,4.48
2023-04-03T11:40:17.460Z,4.39
2023-04-03T11:42:50.899Z,4.70
2023-04-03T11:45:28.157Z,4.26
2023-04-03T11:48:00.980Z,4.13
2023-04-03T11:50:36.870Z,3.90
2023-04-03T11:53:08.396Z,3.97
2023-04-03T11:55:56.238Z,4.12
2023-04-03T11:58:26.521Z,3.98
2023-04-03T12:00:57.018Z,3.76
2023-04-03T12:03:25.928Z,3.70
2023-04-03T12:06:15.130Z,3.76
2023-04-03T12:08:42.942Z,4.18
2023-04-03T12:11:14.641Z,4.30
2023-04-03T12:13:58.245Z,4.40
2023-04-03T12:16:35.922Z,4.54
2023-04-03T12:19:05.539Z,4.46
2023-04-03T12:22:00.632Z,4.09
2023-04-03T12:24:34.104Z,3.99
2023-04-03T12:27:04.117Z,4.06
2023-04-03T12:29:42.617Z,4.32
2023-04-03T12:32:33.963Z,4.69
2023-04-03T12:35:37.611Z,4.41
2023-04-03T12:38:43.354Z,4.39
2023-04-03T12:41:49.334Z,4.41
2023-04-03T12:44:38.523Z,4.63
2023-04-03T12:47:21.673Z,4.38
2023-04-03T12:49:52.649Z,4.33
2023-04-03T12:52:26.755Z,4.48
2023-04-03T12:54:55.361Z,4.22
2023-04-03T12:57:27.030Z,4.10
2023-04-03T12:59:56.323Z,4.36
2023-04-03T13:02:27.431Z,4.41
2023-04-03T13:05:02.013Z,4.62
2023-04-03T13:07:35.834Z,4.60
2023-04-03T13:10:10.184Z,4.41
2023-04-03T13:12:58.557Z,4.41
2023-04-03T13:15:31.413Z,4.33
2023-04-03T13:17:59.872Z,4.49
2023-04-03T13:20:31.819Z,4.38
2023-04-03T13:23:10.155Z,4.45
2023-04-03T13:25:45.695Z,4.49
2023-04-03T13:28:18.565Z,4.63
2023-04-03T13:30:58.980Z,4.59
2023-04-03T13:33:29.545Z,4.44
2023-04-03T13:36:19.476Z,4.36
2023-04-03T13:38:47.691Z,4.50
2023-04-03T13:41:31.462Z,4.59
2023-04-03T13:44:15.824Z,4.42
2023-04-03T13:46:44.886Z,4.34
2023-04-03T13:49:39.145Z,4.39
2023-04-03T13:52:32.073Z,4.53
2023-04-03T13:55:07.896Z,4.45
2023-04-03T13:57:38.151Z,4.35
2023-04-03T14:00:31.261Z,4.48
2023-04-03T14:02:59.886Z,4.51
2023-04-03T14:05:28.599Z,4.49
2023-04-03T14:07:56.801Z,4.69
2023-04-03T14:10:24.853Z,4.52
2023-04-03T14:12:53.305Z,4.39
2023-04-03T14:15:25.574Z,4.26
2023-04-03T14:17:54.219Z,4.24
2023-04-03T14:20:25.517Z,4.26
2023-04-03T14:22:55.019Z,4.14
2023-04-03T14:25:25.152Z,4.13
2023-04-03T14:27:55.066Z,4.08
2023-04-03T14:30:26.748Z,4.01
2023-04-03T14:32:56.029Z,4.04
2023-04-03T14:35:24.953Z,4.02
2023-04-03T14:37:54.591Z,3.96
2023-04-03T14:40:28.581Z,3.93
2023-04-03T14:42:58.868Z,3.98
2023-04-03T14:45:27.519Z,4.05
2023-04-03T14:47:58.178Z,4.08
2023-04-03T14:50:28.681Z,4.21
2023-04-03T14:52:59.811Z,4.31
2023-04-03T14:55:29.174Z,4.22
2023-04-03T14:57:57.417Z,4.15
2023-04-03T15:00:25.539Z,4.22
2023-04-03T15:02:53.851Z,4.15
2023-04-03T15:05:22.172Z,4.08
2023-04-03T15:07:56.767Z,4.02
2023-04-03T15:10:27.805Z,3.98
2023-04-03T15:12:56.876Z,4.00
2023-04-03T15:15:26.187Z,4.11
2023-04-03T15:17:57.830Z,4.07
2023-04-03T15:20:27.810Z,4.07
2023-04-03T15:22:57.558Z,4.07
2023-04-03T15:29:56.266Z,3.96
2023-04-03T15:32:24.903Z,3.94
2023-04-03T15:34:55.959Z,3.87
2023-04-03T15:37:25.272Z,3.79
2023-04-03T15:39:53.119Z,3.79
2023-04-03T15:42:21.705Z,3.80
2023-04-03T15:44:49.569Z,3.72
2023-04-03T15:47:19.408Z,3.74
2023-04-03T15:49:47.481Z,3.82
2023-04-03T15:52:15.610Z,3.71
2023-04-03T15:54:43.566Z,3.70
2023-04-03T15:57:12.026Z,3.71
2023-04-03T15:59:39.785Z,3.60
2023-04-03T16:02:09.312Z,3.54
2023-04-03T16:04:37.688Z,3.62
2023-04-03T16:07:06.630Z,3.62
2023-04-03T16:09:35.331Z,3.57
2023-04-03T16:12:04.992Z,3.55
2023-04-03T16:14:33.789Z,3.49
2023-04-03T16:17:02.523Z,3.48
2023-04-03T16:19:31.094Z,3.44
2023-04-03T16:21:59.377Z,3.42
2023-04-03T16:24:27.441Z,3.41
2023-04-03T16:26:55.556Z,3.42
2023-04-03T16:29:23.430Z,3.21
2023-04-03T16:31:51.975Z,3.35
2023-04-03T16:34:20.333Z,3.32
2023-04-03T16:36:48.996Z,3.32
2023-04-03T16:39:17.148Z,3.32
2023-04-03T16:41:45.434Z,3.26
2023-04-03T16:44:13.350Z,3.21
2023-04-03T16:46:42.085Z,3.21
2023-04-03T16:49:10.476Z,3.18
2023-04-03T16:51:38.523Z,3.22
2023-04-03T16:54:07.971Z,3.19
2023-04-03T16:56:35.972Z,3.20
2023-04-03T16:59:06.062Z,3.21
2023-04-03T17:01:34.291Z,3.18
2023-04-03T17:04:02.431Z,3.15
2023-04-03T17:06:30.921Z,3.16
2023-04-03T17:08:59.151Z,3.16
2023-04-03T17:11:31.135Z,3.11
2023-04-03T17:13:59.882Z,3.05
2023-04-03T17:16:28.966Z,3.01
2023-04-03T17:18:57.185Z,3.00
2023-04-03T17:21:25.480Z,2.99
2023-04-03T17:23:58.829Z,2.99
2023-04-03T17:26:27.843Z,2.97
2023-04-03T17:28:56.015Z,2.98
2023-04-03T17:31:24.505Z,2.94
2023-04-03T17:33:52.006Z,2.87
2023-04-03T17:36:20.323Z,2.93
2023-04-03T17:38:49.046Z,2.93
2023-04-03T17:41:17.516Z,2.89
2023-04-03T17:43:45.553Z,2.79
2023-04-03T17:46:13.907Z,2.77
2023-04-03T17:48:41.848Z,2.78
2023-04-03T17:51:13.182Z,2.77
2023-04-03T17:53:41.373Z,2.76
2023-04-03T17:56:14.947Z,2.74
2023-04-03T17:58:43.572Z,2.72
2023-04-03T18:01:14.451Z,2.68
2023-04-03T18:03:42.820Z,2.70
2023-04-03T18:06:13.197Z,2.64
2023-04-03T18:08:44.884Z,2.61
2023-04-03T18:11:13.652Z,2.62
2023-04-03T18:13:42.386Z,2.55
2023-04-03T18:16:12.135Z,2.53
2023-04-03T18:18:41.052Z,2.49
2023-04-03T18:21:10.461Z,2.49
2023-04-03T18:23:41.446Z,2.43
2023-04-03T18:26:10.627Z,2.40
2023-04-03T18:28:39.365Z,2.35
2023-04-03T18:31:11.031Z,2.33
2023-04-03T18:33:39.226Z,2.38
2023-04-03T18:36:08.432Z,2.30
2023-04-03T18:38:36.361Z,2.26
2023-04-03T18:41:06.059Z,2.18
2023-04-03T18:43:34.542Z,2.28
2023-04-03T18:46:03.078Z,2.31
2023-04-03T18:48:31.326Z,2.27
2023-04-03T18:51:00.743Z,2.18
2023-04-03T18:53:28.972Z,2.25
2023-04-03T18:55:57.040Z,2.22
2023-04-03T18:58:24.993Z,2.22
2023-04-03T19:00:53.478Z,2.16
2023-04-03T19:03:21.476Z,2.14
2023-04-03T19:05:50.020Z,2.09
2023-04-03T19:08:18.231Z,2.04
2023-04-03T19:10:46.891Z,2.01
2023-04-03T19:13:14.954Z,1.98
2023-04-03T19:15:43.745Z,1.98
2023-04-03T19:18:11.672Z,1.91
2023-04-03T19:20:40.155Z,1.99
2023-04-03T19:23:09.012Z,1.99
2023-04-03T19:25:38.697Z,1.94
2023-04-03T19:28:07.458Z,1.89
2023-04-03T19:30:37.564Z,1.90
2023-04-03T19:33:05.878Z,1.88
2023-04-03T19:35:34.363Z,1.89
2023-04-03T19:38:02.202Z,1.89
2023-04-03T19:40:32.429Z,1.89
2023-04-03T19:43:00.296Z,1.80
2023-04-03T19:45:28.782Z,1.66
2023-04-03T19:48:01.553Z,1.73
2023-04-03T19:50:30.600Z,1.69
2023-04-03T19:52:58.618Z,1.67
2023-04-03T19:55:31.539Z,1.70
2023-04-03T19:58:00.123Z,1.68
2023-04-03T20:00:30.403Z,1.63
2023-04-03T20:02:58.338Z,1.58
2023-04-03T20:05:26.571Z,1.56
2023-04-03T20:07:56.260Z,1.57
2023-04-03T20:10:24.804Z,1.56
2023-04-03T20:12:52.747Z,1.46
2023-04-03T20:15:21.010Z,1.44
2023-04-03T20:17:49.849Z,1.42
2023-04-03T20:20:18.964Z,1.40
2023-04-03T20:22:47.016Z,1.32
2023-04-03T20:25:23.947Z,1.31
2023-04-03T20:28:04.262Z,1.25
2023-04-03T20:30:32.917Z,1.18
2023-04-03T20:33:00.917Z,1.20
2023-04-03T20:35:31.065Z,1.18
2023-04-03T20:37:59.876Z,1.06
2023-04-03T20:40:28.126Z,0.98
2023-04-03T20:42:56.444Z,1.11
2023-04-03T20:45:25.130Z,1.03
2023-04-03T20:47:54.199Z,0.99
2023-04-03T20:50:22.656Z,0.95
2023-04-03T20:52:50.657Z,0.96
2023-04-03T20:55:19.046Z,0.93
2023-04-03T20:57:54.382Z,0.92
2023-04-03T21:00:24.347Z,0.87
2023-04-03T21:02:52.178Z,0.87
2023-04-03T21:05:23.572Z,0.83
2023-04-03T21:08:28.877Z,0.85
2023-04-03T21:11:36.921Z,0.81
2023-04-03T21:14:43.037Z,0.79
2023-04-03T21:17:11.390Z,0.74
2023-04-03T21:19:46.731Z,0.70
2023-04-03T21:22:16.456Z,0.67
2023-04-03T21:24:44.904Z,0.65
2023-04-03T21:27:13.600Z,0.67
2023-04-03T21:29:42.379Z,0.60
2023-04-03T21:32:11.116Z,0.56
2023-04-03T21:34:39.524Z,0.52
2023-04-03T21:37:09.673Z,0.52
2023-04-03T21:39:37.555Z,0.51
2023-04-03T21:42:06.879Z,0.48
2023-04-03T21:44:34.884Z,0.37
2023-04-03T21:47:02.973Z,0.35
2023-04-03T21:49:30.587Z,0.38
2023-04-03T21:51:58.871Z,0.36
2023-04-03T21:54:28.051Z,0.39
2023-04-03T21:56:56.274Z,0.36
2023-04-03T21:59:24.657Z,0.29
2023-04-03T22:01:52.832Z,0.19
2023-04-03T22:04:21.565Z,0.18
2023-04-03T22:06:52.980Z,0.09
2023-04-03T22:09:20.620Z,-0.01
2023-04-03T22:11:49.442Z,0.07
2023-04-03T22:14:17.380Z,0.04
2023-04-03T22:16:48.803Z,-0.01
2023-04-03T22:19:16.839Z,-0.02
2023-04-03T22:21:45.334Z,-0.15
2023-04-03T22:24:13.834Z,-0.10
2023-04-03T22:26:44.712Z,-0.15
2023-04-03T22:29:13.451Z,-0.19
2023-04-03T22:31:42.531Z,-0.24
2023-04-03T22:34:10.991Z,-0.25
2023-04-03T22:36:39.702Z,-0.32
2023-04-03T22:39:07.556Z,-0.47
2023-04-03T22:41:36.256Z,-0.39
2023-04-03T22:44:04.172Z,-0.45
2023-04-03T22:46:32.585Z,-0.48
2023-04-03T22:49:00.324Z,-0.39
2023-04-03T22:51:28.142Z,-0.43
2023-04-03T22:53:56.083Z,-0.47
2023-04-03T22:56:26.128Z,-0.49
2023-04-03T22:58:54.292Z,-0.53
2023-04-03T23:01:24.313Z,-0.58
2023-04-03T23:03:52.639Z,-0.59
2023-04-03T23:06:20.401Z,-0.59
2023-04-03T23:08:48.061Z,-0.63
2023-04-03T23:11:16.715Z,-0.76
2023-04-03T23:13:44.522Z,-0.72
2023-04-03T23:16:13.272Z,-0.75
2023-04-03T23:18:43.793Z,-0.86
2023-04-03T23:21:12.187Z,-0.84
2023-04-03T23:23:39.594Z,-0.86
2023-04-03T23:26:09.893Z,-0.90
2023-04-03T23:28:37.850Z,-0.94
2023-04-03T23:31:10.557Z,-0.98
2023-04-03T23:33:39.316Z,-1.03
2023-04-03T23:36:09.104Z,-1.12
2023-04-03T23:38:37.643Z,-1.16
2023-04-03T23:41:06.265Z,-1.17
2023-04-03T23:43:35.127Z,-1.17
2023-04-03T23:46:03.807Z,-1.18
2023-04-03T23:48:31.686Z,-1.20
2023-04-03T23:51:00.097Z,-1.28
2023-04-03T23:53:28.835Z,-1.27
2023-04-03T23:55:57.154Z,-1.37
2023-04-03T23:58:24.963Z,-1.41
